Time;durP1;ratioP1;P1;durP2;ratioP2;P2;SDS_P1;SDS_P2;PMS_P1;PMS_P2;Temp;Humidity;BMP_temperature;BMP_pressure;BME280_temperature;BME280_humidity;BME280_pressure;Samples;Min_cycle;Max_cycle;Signal;HPM_P1;HPM_P2
2023/07/13 00:01:53;;;;;;;2.97;2.20;;;25.60;99.90;;;;;;5085156;28;20203;-83
2023/07/13 00:04:26;;;;;;;2.03;1.60;;;25.70;99.90;;;;;;5067135;28;20203;-82
2023/07/13 00:07:00;;;;;;;3.60;2.00;;;25.90;99.90;;;;;;5077661;28;20206;-82
2023/07/13 00:09:30;;;;;;;3.30;1.90;;;25.80;99.90;;;;;;5090304;28;20203;-82
2023/07/13 00:12:02;;;;;;;2.37;2.03;;;25.60;99.90;;;;;;5084210;28;20244;-81
2023/07/13 00:14:36;;;;;;;2.83;1.93;;;25.70;99.90;;;;;;5090127;28;20219;-83
2023/07/13 00:17:08;;;;;;;4.43;2.47;;;25.80;99.90;;;;;;5089514;28;20297;-82
2023/07/13 00:19:40;;;;;;;6.50;2.30;;;25.80;99.90;;;;;;5088946;28;20199;-83
2023/07/13 00:22:10;;;;;;;3.10;1.77;;;26.20;99.90;;;;;;5090099;28;20234;-82
2023/07/13 00:24:42;;;;;;;4.00;2.20;;;26.20;99.90;;;;;;5088908;28;20199;-83
2023/07/13 00:27:13;;;;;;;3.83;1.90;;;26.00;99.90;;;;;;5089379;28;20217;-82
2023/07/13 00:29:46;;;;;;;2.20;2.00;;;25.80;99.90;;;;;;5087694;28;20201;-82
2023/07/13 00:32:17;;;;;;;2.30;2.07;;;25.50;99.90;;;;;;5083461;28;20268;-83
2023/07/13 00:34:48;;;;;;;2.20;2.00;;;25.30;99.90;;;;;;5080438;28;20231;-82
2023/07/13 00:37:19;;;;;;;3.13;2.00;;;25.20;99.90;;;;;;5085639;28;20242;-82
2023/07/13 00:39:50;;;;;;;4.20;2.40;;;25.10;99.90;;;;;;5086463;28;20589;-85
2023/07/13 00:42:21;;;;;;;2.50;2.20;;;25.30;99.90;;;;;;5086294;28;20199;-85
2023/07/13 00:45:25;;;;;;;5.07;2.60;;;25.40;99.90;;;;;;5087390;28;20293;-84
2023/07/13 00:47:57;;;;;;;3.73;2.00;;;25.60;99.90;;;;;;5088648;28;20240;-84
2023/07/13 00:50:28;;;;;;;8.90;2.60;;;25.70;99.90;;;;;;5075313;28;20233;-85
2023/07/13 00:52:59;;;;;;;4.07;2.00;;;25.80;99.90;;;;;;5087236;28;20215;-83
2023/07/13 00:55:30;;;;;;;2.97;2.00;;;26.00;99.90;;;;;;5085286;28;20273;-86
2023/07/13 00:58:02;;;;;;;2.50;2.20;;;25.90;99.90;;;;;;5086660;28;20230;-85
2023/07/13 01:00:36;;;;;;;4.50;1.90;;;25.80;99.90;;;;;;5084084;28;20240;-84
2023/07/13 01:03:07;;;;;;;2.43;1.90;;;25.90;99.90;;;;;;5086187;28;20205;-84
2023/07/13 01:05:39;;;;;;;2.47;1.87;;;25.90;99.90;;;;;;5086435;28;20195;-83
2023/07/13 01:08:09;;;;;;;4.57;1.83;;;25.80;99.90;;;;;;5079750;28;20211;-84
2023/07/13 01:10:40;;;;;;;4.03;1.90;;;25.30;99.90;;;;;;5085373;28;20220;-83
2023/07/13 01:13:12;;;;;;;4.73;2.13;;;25.20;99.90;;;;;;5079208;28;20213;-84
2023/07/13 01:15:46;;;;;;;2.70;1.97;;;24.70;99.90;;;;;;5084646;28;20199;-84
2023/07/13 01:18:20;;;;;;;3.00;2.10;;;24.20;99.90;;;;;;5080408;28;20202;-85
2023/07/13 01:20:56;;;;;;;2.77;2.13;;;24.00;99.90;;;;;;5082092;28;20253;-83
2023/07/13 01:23:28;;;;;;;4.23;2.03;;;24.00;99.90;;;;;;5081755;28;20203;-84
2023/07/13 01:26:02;;;;;;;3.10;2.10;;;24.20;99.90;;;;;;5084993;28;20732;-84
2023/07/13 01:28:36;;;;;;;3.23;1.90;;;24.00;99.90;;;;;;5078297;28;20248;-83
2023/07/13 01:31:08;;;;;;;3.20;2.60;;;24.00;99.90;;;;;;5077617;28;20294;-84
2023/07/13 01:33:40;;;;;;;3.63;2.00;;;24.10;99.90;;;;;;5070198;28;20204;-83
2023/07/13 01:36:13;;;;;;;2.97;2.07;;;24.20;99.90;;;;;;5081226;28;20229;-82
2023/07/13 01:38:45;;;;;;;2.20;2.00;;;24.20;99.90;;;;;;5080917;28;20199;-83
2023/07/13 01:41:16;;;;;;;2.10;1.90;;;24.20;99.90;;;;;;5079035;28;20765;-83
2023/07/13 01:43:47;;;;;;;2.27;2.07;;;24.00;99.90;;;;;;5084945;28;20222;-84
2023/07/13 01:46:34;;;;;;;2.50;1.80;;;23.70;99.90;;;;;;5080195;28;20648;-84
2023/07/13 01:49:05;;;;;;;3.93;1.80;;;23.70;99.90;;;;;;5079995;28;20203;-82
2023/07/13 01:51:38;;;;;;;2.50;2.00;;;23.70;99.90;;;;;;5079399;28;20199;-85
2023/07/13 01:54:09;;;;;;;2.60;2.10;;;24.20;99.90;;;;;;5084323;28;20237;-84
2023/07/13 01:56:41;;;;;;;2.70;1.80;;;25.20;99.90;;;;;;5084531;28;20195;-86
2023/07/13 01:59:13;;;;;;;4.80;1.87;;;26.20;99.90;;;;;;5083398;28;20203;-84
2023/07/13 02:01:45;;;;;;;5.40;3.17;;;26.80;99.90;;;;;;5093049;28;20268;-85
2023/07/13 02:04:17;;;;;;;4.17;1.70;;;27.10;99.90;;;;;;5105325;28;20233;-85
2023/07/13 02:06:50;;;;;;;3.20;2.10;;;27.50;99.90;;;;;;5103586;28;20191;-84
2023/07/13 02:09:22;;;;;;;2.97;1.80;;;27.60;99.90;;;;;;5093295;28;20207;-84
2023/07/13 02:11:57;;;;;;;3.40;1.90;;;27.50;99.90;;;;;;5074334;28;20195;-85
2023/07/13 02:14:28;;;;;;;2.13;1.93;;;26.40;99.90;;;;;;5082056;28;20240;-84
2023/07/13 02:17:00;;;;;;;2.80;2.30;;;25.80;99.90;;;;;;5086702;28;20672;-84
2023/07/13 02:19:30;;;;;;;2.53;1.93;;;25.30;99.90;;;;;;5088458;28;20654;-84
2023/07/13 02:22:03;;;;;;;2.00;1.80;;;24.80;99.90;;;;;;5088075;28;20217;-84
2023/07/13 02:24:34;;;;;;;4.10;1.87;;;24.40;99.90;;;;;;5093200;28;20272;-85
2023/07/13 02:27:06;;;;;;;9.23;2.40;;;24.00;99.90;;;;;;5086397;28;20199;-83
2023/07/13 02:29:37;;;;;;;2.13;1.80;;;23.60;99.90;;;;;;5089813;28;20736;-84
2023/07/13 02:32:09;;;;;;;4.50;1.93;;;23.50;99.90;;;;;;5093165;28;20244;-84
2023/07/13 02:34:43;;;;;;;3.43;2.00;;;23.40;99.90;;;;;;5074734;28;20322;-85
2023/07/13 02:37:16;;;;;;;2.20;2.00;;;23.50;99.90;;;;;;5094797;28;20289;-85
2023/07/13 02:39:47;;;;;;;3.27;2.03;;;23.00;99.90;;;;;;5097208;28;20248;-84
2023/07/13 02:42:18;;;;;;;2.70;2.13;;;23.00;99.90;;;;;;5091740;28;20574;-84
2023/07/13 02:44:50;;;;;;;5.00;2.00;;;23.00;99.90;;;;;;5096127;28;20195;-82
2023/07/13 02:47:21;;;;;;;2.97;2.00;;;23.00;99.90;;;;;;5092891;28;20613;-84
2023/07/13 02:49:52;;;;;;;3.13;2.00;;;23.00;99.90;;;;;;5085006;28;20212;-83
2023/07/13 02:52:25;;;;;;;2.53;1.90;;;22.80;99.90;;;;;;5089140;28;20230;-83
2023/07/13 02:54:56;;;;;;;4.20;2.60;;;22.80;99.90;;;;;;5091092;28;20227;-83
2023/07/13 02:57:27;;;;;;;2.60;2.00;;;22.70;99.90;;;;;;5086809;28;20213;-82
2023/07/13 02:59:59;;;;;;;3.23;2.50;;;22.50;99.90;;;;;;5083446;28;20214;-83
2023/07/13 03:02:30;;;;;;;2.17;1.97;;;22.50;99.90;;;;;;5088331;28;20245;-83
2023/07/13 03:05:01;;;;;;;2.07;1.80;;;22.50;99.90;;;;;;5086137;28;20214;-84
2023/07/13 03:07:34;;;;;;;3.20;2.20;;;22.40;99.90;;;;;;5089081;28;20209;-82
2023/07/13 03:10:06;;;;;;;2.13;1.80;;;22.40;99.90;;;;;;5088957;28;20209;-83
2023/07/13 03:12:37;;;;;;;2.13;1.80;;;22.40;99.90;;;;;;5085712;28;20950;-84
2023/07/13 03:15:08;;;;;;;4.10;2.07;;;22.30;99.90;;;;;;5088133;28;20234;-84
2023/07/13 03:17:39;;;;;;;3.23;1.70;;;22.20;99.90;;;;;;5088826;28;20234;-84
2023/07/13 03:20:11;;;;;;;6.07;2.60;;;22.20;99.90;;;;;;5078229;28;20256;-85
2023/07/13 03:22:45;;;;;;;3.10;1.80;;;22.00;99.90;;;;;;5090471;28;21968;-84
2023/07/13 03:25:16;;;;;;;4.27;2.07;;;21.90;99.90;;;;;;5084042;28;20203;-82
2023/07/13 03:27:47;;;;;;;3.93;1.83;;;21.80;99.90;;;;;;5088335;28;20209;-84
2023/07/13 03:30:18;;;;;;;2.23;1.70;;;21.60;99.90;;;;;;5081790;28;20199;-83
2023/07/13 03:32:49;;;;;;;3.97;2.10;;;21.60;99.90;;;;;;5078547;28;20290;-84
2023/07/13 03:35:20;;;;;;;5.43;1.80;;;21.40;99.90;;;;;;5086803;28;20606;-83
2023/07/13 03:37:53;;;;;;;4.00;1.87;;;21.30;99.90;;;;;;5087765;28;20233;-84
2023/07/13 03:40:26;;;;;;;13.13;2.70;;;21.30;99.90;;;;;;5091134;28;20722;-83
2023/07/13 03:42:58;;;;;;;2.67;1.87;;;20.90;99.90;;;;;;5085703;28;20302;-83
2023/07/13 03:45:29;;;;;;;3.50;2.13;;;20.70;99.90;;;;;;5089824;28;20214;-84
2023/07/13 03:48:01;;;;;;;5.87;1.70;;;20.60;99.90;;;;;;5072855;28;20211;-86
2023/07/13 03:50:32;;;;;;;3.13;1.80;;;20.50;99.90;;;;;;5074322;28;20226;-84
2023/07/13 03:53:05;;;;;;;4.00;2.00;;;20.40;99.90;;;;;;5088627;28;20676;-84
2023/07/13 03:55:36;;;;;;;7.40;1.90;;;20.30;99.90;;;;;;5084766;28;20229;-84
2023/07/13 03:58:32;;;;;;;2.60;1.70;;;20.30;99.90;;;;;;5094438;28;20229;-85
2023/07/13 04:01:06;;;;;;;3.20;1.73;;;20.20;99.90;;;;;;5092537;28;20216;-86
2023/07/13 04:03:38;;;;;;;4.40;1.80;;;20.20;99.90;;;;;;5093244;28;20241;-87
2023/07/13 04:06:20;;;;;;;5.37;2.57;;;20.10;99.90;;;;;;5091277;28;20263;-86
2023/07/13 04:08:55;;;;;;;3.80;1.87;;;20.10;99.90;;;;;;5089970;28;20215;-84
2023/07/13 04:11:28;;;;;;;2.70;2.03;;;20.00;99.90;;;;;;5087807;28;20293;-85
2023/07/13 04:13:59;;;;;;;5.10;1.97;;;19.80;99.90;;;;;;5088753;28;20199;-83
2023/07/13 04:16:30;;;;;;;2.63;1.80;;;19.80;99.90;;;;;;5081172;28;20277;-85
2023/07/13 04:19:01;;;;;;;4.30;1.77;;;19.70;99.90;;;;;;5081378;28;20612;-83
2023/07/13 04:21:33;;;;;;;5.13;1.80;;;19.80;99.90;;;;;;5089199;28;20211;-83
2023/07/13 04:24:06;;;;;;;2.60;1.80;;;19.80;99.90;;;;;;5096380;28;20270;-83
2023/07/13 04:26:38;;;;;;;3.50;1.70;;;19.70;99.90;;;;;;5089883;28;20214;-81
2023/07/13 04:29:09;;;;;;;2.83;1.90;;;19.60;99.90;;;;;;5087654;28;20271;-82
2023/07/13 04:31:40;;;;;;;2.70;1.87;;;19.70;99.90;;;;;;5085454;28;20749;-83
2023/07/13 04:34:11;;;;;;;2.97;1.70;;;19.60;99.90;;;;;;5083893;28;20297;-84
2023/07/13 04:36:42;;;;;;;3.77;1.83;;;19.60;99.90;;;;;;5087464;28;20828;-83
2023/07/13 04:39:15;;;;;;;3.20;1.60;;;19.60;99.90;;;;;;5080271;28;20226;-83
2023/07/13 04:41:45;;;;;;;2.10;1.73;;;19.60;99.90;;;;;;5086816;28;20720;-83
2023/07/13 04:44:16;;;;;;;3.33;1.90;;;19.60;99.90;;;;;;5090298;28;20199;-83
2023/07/13 04:46:47;;;;;;;3.10;1.93;;;19.50;99.90;;;;;;5087906;28;20202;-83
2023/07/13 04:49:18;;;;;;;2.10;1.90;;;19.40;99.90;;;;;;5087561;28;20676;-83
2023/07/13 04:51:49;;;;;;;3.43;1.70;;;19.40;99.90;;;;;;5085371;28;20207;-84
2023/07/13 04:54:22;;;;;;;2.63;1.90;;;19.30;99.90;;;;;;5084602;28;20203;-84
2023/07/13 04:56:55;;;;;;;2.30;1.77;;;19.30;99.90;;;;;;5089064;28;20230;-84
2023/07/13 04:59:26;;;;;;;2.47;1.87;;;19.20;99.90;;;;;;5089744;28;20199;-83
2023/07/13 05:01:56;;;;;;;2.40;1.83;;;19.20;99.90;;;;;;5087568;28;20203;-83
2023/07/13 05:04:28;;;;;;;3.00;1.77;;;19.10;99.90;;;;;;5087519;28;20206;-84
2023/07/13 05:06:59;;;;;;;3.83;1.77;;;19.00;99.90;;;;;;5084753;28;20215;-84
2023/07/13 05:09:31;;;;;;;3.77;1.83;;;19.00;99.90;;;;;;5089605;28;20206;-84
2023/07/13 05:12:02;;;;;;;2.73;1.90;;;18.90;99.90;;;;;;5085786;28;20670;-84
2023/07/13 05:14:33;;;;;;;1.77;1.57;;;18.90;99.90;;;;;;5088044;28;20203;-84
2023/07/13 05:17:04;;;;;;;3.40;1.80;;;18.90;99.90;;;;;;5087007;28;20242;-85
2023/07/13 05:19:35;;;;;;;4.13;1.90;;;18.70;99.90;;;;;;5084315;28;20199;-83
2023/07/13 05:22:06;;;;;;;2.83;1.83;;;18.70;99.90;;;;;;5085142;28;20272;-83
2023/07/13 05:24:39;;;;;;;4.20;1.77;;;18.60;99.90;;;;;;5085582;28;20823;-83
2023/07/13 05:27:10;;;;;;;2.23;1.90;;;18.50;99.90;;;;;;5087080;28;20195;-81
2023/07/13 05:29:41;;;;;;;2.37;1.70;;;18.40;99.90;;;;;;5085819;28;20217;-83
2023/07/13 05:32:12;;;;;;;3.03;1.90;;;18.30;99.90;;;;;;5087682;28;20824;-84
2023/07/13 05:34:42;;;;;;;2.40;1.83;;;18.30;99.90;;;;;;5086181;28;20203;-83
2023/07/13 05:37:13;;;;;;;2.40;1.90;;;18.20;99.90;;;;;;5085113;28;20342;-83
2023/07/13 05:39:46;;;;;;;5.33;1.70;;;18.10;99.90;;;;;;5080726;28;20681;-83
2023/07/13 05:42:17;;;;;;;3.23;2.03;;;18.10;99.90;;;;;;5087011;28;20647;-83
2023/07/13 05:44:48;;;;;;;2.53;1.70;;;18.00;99.90;;;;;;5084856;28;20206;-83
2023/07/13 05:47:18;;;;;;;3.17;1.93;;;18.00;99.90;;;;;;5084558;28;20441;-84
2023/07/13 05:49:50;;;;;;;4.90;1.83;;;17.90;99.90;;;;;;5088444;28;20211;-82
2023/07/13 05:52:21;;;;;;;4.90;2.03;;;17.80;99.90;;;;;;5089638;28;20299;-85
2023/07/13 05:54:53;;;;;;;3.27;2.10;;;17.70;99.90;;;;;;5086294;28;20289;-84
2023/07/13 05:57:24;;;;;;;2.53;1.77;;;17.70;99.90;;;;;;5090838;28;20321;-84
2023/07/13 05:59:55;;;;;;;2.53;1.90;;;17.60;99.90;;;;;;5087217;28;20286;-84
2023/07/13 06:02:26;;;;;;;4.33;1.97;;;17.60;99.90;;;;;;5086547;28;20203;-82
2023/07/13 06:04:57;;;;;;;2.07;1.77;;;17.50;99.90;;;;;;5089163;28;20672;-82
2023/07/13 06:07:28;;;;;;;2.53;1.80;;;17.40;99.90;;;;;;5093362;28;20199;-83
2023/07/13 06:10:00;;;;;;;2.70;1.77;;;17.30;99.90;;;;;;5084975;28;20211;-83
2023/07/13 06:12:31;;;;;;;3.13;1.83;;;17.20;99.90;;;;;;5089115;28;20291;-84
2023/07/13 06:15:03;;;;;;;3.23;1.70;;;17.10;99.90;;;;;;5090453;28;20328;-83
2023/07/13 06:17:34;;;;;;;3.13;1.80;;;17.20;99.90;;;;;;5091338;28;20317;-84
2023/07/13 06:20:05;;;;;;;2.60;1.70;;;17.20;99.90;;;;;;5079497;28;20203;-83
2023/07/13 06:22:36;;;;;;;2.77;1.97;;;17.10;99.90;;;;;;5093559;28;20206;-83
2023/07/13 06:25:10;;;;;;;3.10;1.80;;;17.10;99.90;;;;;;5089734;28;20664;-83
2023/07/13 06:27:41;;;;;;;3.33;1.70;;;17.00;99.90;;;;;;5092590;28;20215;-83
2023/07/13 06:30:13;;;;;;;3.97;1.83;;;17.00;99.90;;;;;;5107436;28;20183;-83
2023/07/13 06:32:44;;;;;;;2.53;1.80;;;16.90;99.90;;;;;;5104389;28;20205;-83
2023/07/13 06:35:15;;;;;;;2.40;1.63;;;16.90;99.90;;;;;;5091403;28;20251;-83
2023/07/13 06:37:47;;;;;;;2.73;1.67;;;16.90;99.90;;;;;;5091685;28;20226;-84
2023/07/13 06:40:19;;;;;;;3.17;2.00;;;16.80;99.90;;;;;;5088888;28;20293;-83
2023/07/13 06:42:50;;;;;;;2.50;1.97;;;16.80;99.90;;;;;;5085576;28;20438;-83
2023/07/13 06:45:21;;;;;;;2.60;1.80;;;16.80;99.90;;;;;;5093229;28;20195;-85
2023/07/13 06:47:52;;;;;;;2.60;1.80;;;16.70;99.90;;;;;;5088442;28;20276;-84
2023/07/13 06:50:23;;;;;;;3.30;1.70;;;16.70;99.90;;;;;;5092312;28;20575;-83
2023/07/13 06:52:54;;;;;;;2.93;2.00;;;16.60;99.90;;;;;;5088418;28;20199;-83
2023/07/13 06:55:26;;;;;;;4.07;2.17;;;16.60;99.90;;;;;;5087434;28;20679;-84
2023/07/13 06:57:57;;;;;;;2.63;1.73;;;16.60;99.90;;;;;;5092927;28;20689;-83
2023/07/13 07:00:28;;;;;;;3.13;1.70;;;16.50;99.90;;;;;;5093191;28;20292;-84
2023/07/13 07:02:59;;;;;;;3.17;1.97;;;16.50;99.90;;;;;;5085129;28;20253;-83
2023/07/13 07:05:31;;;;;;;2.60;1.80;;;16.50;99.90;;;;;;5087593;28;20583;-83
2023/07/13 07:08:01;;;;;;;2.50;1.73;;;16.40;99.90;;;;;;5088496;28;20206;-85
2023/07/13 07:10:35;;;;;;;3.77;1.90;;;16.40;99.90;;;;;;5088373;28;20257;-83
2023/07/13 07:13:06;;;;;;;3.23;1.73;;;16.40;99.90;;;;;;5084510;28;20207;-82
2023/07/13 07:15:37;;;;;;;3.60;1.83;;;16.30;99.90;;;;;;5090255;28;20226;-84
2023/07/13 07:18:08;;;;;;;5.33;1.87;;;16.30;99.90;;;;;;5092334;28;20270;-84
2023/07/13 07:20:39;;;;;;;3.33;2.10;;;16.30;99.90;;;;;;5089752;28;20669;-82
2023/07/13 07:23:10;;;;;;;2.67;2.00;;;16.20;99.90;;;;;;5089103;28;20219;-83
2023/07/13 07:25:45;;;;;;;3.63;1.93;;;16.20;99.90;;;;;;5089787;28;20202;-85
2023/07/13 07:28:18;;;;;;;2.03;1.83;;;16.10;99.90;;;;;;5089375;28;20217;-83
2023/07/13 07:30:55;;;;;;;2.97;1.63;;;16.10;99.90;;;;;;5087864;28;20221;-84
2023/07/13 07:33:29;;;;;;;3.03;2.27;;;16.10;99.90;;;;;;5087581;28;20198;-83
2023/07/13 07:36:00;;;;;;;3.80;1.70;;;16.00;99.90;;;;;;5087712;28;20210;-84
2023/07/13 07:38:34;;;;;;;3.87;1.87;;;16.00;99.90;;;;;;5079968;28;20239;-84
2023/07/13 07:41:08;;;;;;;2.37;1.80;;;15.90;99.90;;;;;;5082453;28;20314;-83
2023/07/13 07:43:41;;;;;;;3.47;1.70;;;15.90;99.90;;;;;;5091599;28;20203;-85
2023/07/13 07:46:12;;;;;;;3.23;1.80;;;15.90;99.90;;;;;;5090774;28;20203;-84
2023/07/13 07:48:44;;;;;;;3.00;1.80;;;15.80;99.90;;;;;;5091217;28;20206;-85
2023/07/13 07:51:15;;;;;;;4.50;2.30;;;15.80;99.90;;;;;;5077889;28;20691;-84
2023/07/13 07:53:46;;;;;;;6.13;1.73;;;15.70;99.90;;;;;;5092813;28;20246;-84
2023/07/13 07:56:18;;;;;;;2.90;1.90;;;15.60;99.90;;;;;;5079600;28;20231;-84
2023/07/13 07:58:52;;;;;;;3.17;1.90;;;15.50;99.90;;;;;;5088145;28;20245;-84
2023/07/13 08:01:26;;;;;;;3.27;1.60;;;15.50;99.90;;;;;;5090507;28;20233;-83
2023/07/13 08:03:59;;;;;;;3.20;1.80;;;15.40;99.90;;;;;;5093640;28;20214;-83
2023/07/13 08:06:34;;;;;;;4.50;1.80;;;15.40;99.90;;;;;;5102533;28;20203;-83
2023/07/13 08:09:09;;;;;;;3.40;1.90;;;15.30;99.90;;;;;;5103522;28;20243;-82
2023/07/13 08:11:41;;;;;;;2.00;1.77;;;15.30;99.90;;;;;;5098588;28;20191;-84
2023/07/13 08:14:16;;;;;;;2.20;1.70;;;15.30;99.90;;;;;;5087601;28;20206;-84
2023/07/13 08:16:47;;;;;;;2.43;1.70;;;15.20;99.90;;;;;;5084395;28;20199;-83
2023/07/13 08:19:18;;;;;;;2.13;1.93;;;15.20;99.90;;;;;;5086639;28;20231;-83
2023/07/13 08:21:49;;;;;;;3.07;1.83;;;15.20;99.90;;;;;;5089881;28;20664;-84
2023/07/13 08:24:23;;;;;;;2.13;1.70;;;15.10;99.90;;;;;;5091272;28;20202;-84
2023/07/13 08:26:56;;;;;;;1.93;1.60;;;15.20;99.90;;;;;;5090260;28;20294;-84
2023/07/13 08:29:27;;;;;;;4.87;1.80;;;15.10;99.90;;;;;;5090109;28;20252;-82
2023/07/13 08:32:00;;;;;;;3.20;1.93;;;15.10;99.90;;;;;;5087491;28;20298;-85
2023/07/13 08:34:31;;;;;;;3.50;1.87;;;15.00;99.90;;;;;;5073886;28;20279;-83
2023/07/13 08:37:02;;;;;;;3.17;1.73;;;14.90;99.90;;;;;;5091079;28;20311;-84
2023/07/13 08:39:34;;;;;;;3.93;2.07;;;14.90;99.90;;;;;;5092887;28;20246;-84
2023/07/13 08:42:12;;;;;;;3.17;1.70;;;14.90;99.90;;;;;;5109805;28;20244;-85
2023/07/13 08:44:56;;;;;;;3.33;2.10;;;14.90;99.90;;;;;;5098848;28;20207;-85
2023/07/13 08:47:28;;;;;;;4.20;1.60;;;14.90;99.90;;;;;;5090564;28;20264;-84
2023/07/13 08:50:01;;;;;;;1.70;1.60;;;14.90;99.90;;;;;;5096185;28;20207;-84
2023/07/13 08:52:36;;;;;;;3.00;1.73;;;14.90;99.90;;;;;;5077501;28;20286;-84
2023/07/13 08:55:14;;;;;;;2.17;1.70;;;14.80;99.90;;;;;;5073934;28;20198;-83
2023/07/13 08:57:52;;;;;;;2.37;1.90;;;14.80;99.90;;;;;;5089925;28;20308;-84
2023/07/13 09:00:23;;;;;;;3.37;2.27;;;14.70;99.90;;;;;;5089611;28;20199;-84
2023/07/13 09:02:58;;;;;;;5.23;1.70;;;14.70;99.90;;;;;;5087675;28;20278;-84
2023/07/13 09:05:32;;;;;;;2.90;2.07;;;14.70;99.90;;;;;;5076639;28;20203;-84
2023/07/13 09:08:18;;;;;;;3.17;1.97;;;14.70;99.90;;;;;;5087390;28;21422;-83
2023/07/13 09:10:54;;;;;;;2.33;1.50;;;14.60;99.90;;;;;;5080926;28;20218;-82
2023/07/13 09:13:43;;;;;;;2.70;1.90;;;14.60;99.90;;;;;;5081008;28;20210;-84
2023/07/13 09:16:15;;;;;;;3.77;1.83;;;14.60;99.90;;;;;;5079929;28;20668;-83
2023/07/13 09:18:49;;;;;;;1.83;1.60;;;14.60;99.90;;;;;;5076298;28;20233;-85
2023/07/13 09:21:25;;;;;;;3.13;1.80;;;14.70;99.90;;;;;;5077784;28;20242;-82
2023/07/13 09:23:58;;;;;;;2.53;1.70;;;14.60;99.90;;;;;;5080359;28;20199;-84
2023/07/13 09:26:32;;;;;;;2.23;1.70;;;14.70;99.90;;;;;;5085883;28;20728;-83
2023/07/13 09:29:13;;;;;;;3.97;1.80;;;14.70;99.90;;;;;;5082324;28;20207;-83
2023/07/13 09:31:51;;;;;;;2.50;2.00;;;14.70;99.90;;;;;;5080822;28;20220;-83
2023/07/13 09:34:22;;;;;;;4.47;1.93;;;14.60;99.90;;;;;;5075885;28;20282;-83
2023/07/13 09:36:53;;;;;;;3.47;1.97;;;14.70;99.90;;;;;;5087893;28;20203;-84
2023/07/13 09:39:28;;;;;;;2.57;1.97;;;14.60;99.90;;;;;;5077003;28;20323;-84
2023/07/13 09:42:06;;;;;;;3.47;1.87;;;14.60;99.90;;;;;;5083632;28;20294;-84
2023/07/13 09:44:40;;;;;;;2.90;1.97;;;14.50;99.90;;;;;;5085644;28;20224;-84
2023/07/13 09:47:19;;;;;;;2.57;1.80;;;14.50;99.90;;;;;;5085629;28;20585;-83
2023/07/13 09:49:55;;;;;;;3.47;1.80;;;14.40;99.90;;;;;;5084409;28;20215;-84
2023/07/13 09:52:40;;;;;;;2.63;1.70;;;14.30;99.90;;;;;;5084575;28;20241;-85
2023/07/13 09:55:28;;;;;;;3.67;1.60;;;14.30;99.90;;;;;;5078359;28;20680;-83
2023/07/13 09:57:59;;;;;;;3.13;1.70;;;14.30;99.90;;;;;;5089041;28;20913;-84
2023/07/13 10:00:33;;;;;;;2.50;1.80;;;14.30;99.90;;;;;;5088740;28;20306;-85
2023/07/13 10:03:06;;;;;;;2.33;1.60;;;14.20;99.90;;;;;;5087558;28;20648;-85
2023/07/13 10:05:41;;;;;;;2.27;1.87;;;14.20;99.90;;;;;;5088896;28;20211;-83
2023/07/13 10:08:27;;;;;;;4.10;1.50;;;14.20;99.90;;;;;;5089042;28;20580;-83
2023/07/13 10:11:04;;;;;;;2.57;1.93;;;14.10;99.90;;;;;;5087927;28;20203;-83
2023/07/13 10:13:38;;;;;;;2.47;1.60;;;14.10;99.90;;;;;;5083946;28;20203;-83
2023/07/13 10:16:12;;;;;;;3.23;1.67;;;14.10;99.90;;;;;;5083763;28;20699;-83
2023/07/13 10:18:47;;;;;;;3.50;1.60;;;14.10;99.90;;;;;;5078002;28;20313;-83
2023/07/13 10:21:21;;;;;;;2.77;1.53;;;14.10;99.90;;;;;;5080050;28;20326;-83
2023/07/13 10:23:59;;;;;;;1.83;1.70;;;14.10;99.90;;;;;;5088873;28;20613;-83
2023/07/13 10:26:34;;;;;;;3.63;1.83;;;14.00;99.90;;;;;;5089552;28;20206;-84
2023/07/13 10:29:11;;;;;;;3.13;1.40;;;14.00;99.90;;;;;;5087935;28;20224;-83
2023/07/13 10:31:46;;;;;;;3.80;1.83;;;14.00;99.90;;;;;;5083499;28;20222;-84
2023/07/13 10:34:17;;;;;;;2.93;1.90;;;13.90;99.90;;;;;;5088220;28;20668;-85
2023/07/13 10:36:50;;;;;;;2.60;1.83;;;13.80;99.90;;;;;;5083434;28;20225;-85
2023/07/13 10:39:23;;;;;;;3.40;1.73;;;13.80;99.90;;;;;;5084728;28;20241;-83
2023/07/13 10:41:57;;;;;;;2.47;1.63;;;13.80;99.90;;;;;;5084356;28;20207;-82
2023/07/13 10:44:30;;;;;;;2.87;2.00;;;13.80;99.90;;;;;;5093071;28;20195;-83
2023/07/13 10:47:06;;;;;;;4.17;1.73;;;13.70;99.90;;;;;;5093208;28;20219;-84
2023/07/13 10:49:38;;;;;;;3.17;2.10;;;13.60;99.90;;;;;;5103005;28;20254;-83
2023/07/13 10:52:47;;;;;;;2.90;1.87;;;13.50;99.90;;;;;;5118301;28;20187;-85
2023/07/13 10:55:38;;;;;;;2.00;1.70;;;13.50;99.90;;;;;;5092240;28;20210;-87
2023/07/13 10:58:21;;;;;;;2.27;1.87;;;13.50;99.90;;;;;;5114685;28;20270;-84
2023/07/13 11:00:57;;;;;;;2.43;2.10;;;13.50;99.90;;;;;;5110263;28;20199;-84
2023/07/13 11:03:32;;;;;;;2.70;1.90;;;13.50;99.90;;;;;;5093455;28;20205;-84
2023/07/13 11:06:16;;;;;;;2.93;1.93;;;13.50;99.90;;;;;;5093393;28;20213;-84
2023/07/13 11:08:58;;;;;;;2.23;1.70;;;13.40;99.90;;;;;;5092815;28;20199;-83
2023/07/13 11:11:38;;;;;;;2.03;1.80;;;13.30;99.90;;;;;;5089851;28;20207;-83
2023/07/13 11:14:31;;;;;;;3.97;2.20;;;13.30;99.90;;;;;;5092337;28;20202;-85
2023/07/13 11:17:39;;;;;;;3.17;1.73;;;13.40;99.90;;;;;;5091687;28;20297;-84
2023/07/13 11:20:34;;;;;;;1.73;1.50;;;13.40;99.90;;;;;;5086879;28;20230;-84
2023/07/13 11:23:31;;;;;;;3.10;2.00;;;13.40;99.90;;;;;;5072006;28;20219;-84
2023/07/13 11:26:02;;;;;;;2.30;1.90;;;13.40;99.90;;;;;;5089811;28;20192;-83
2023/07/13 11:28:35;;;;;;;2.10;1.90;;;13.40;99.90;;;;;;5081944;28;20210;-84
2023/07/13 11:31:16;;;;;;;3.30;2.00;;;13.40;99.90;;;;;;5087371;28;20203;-84
2023/07/13 11:33:58;;;;;;;3.40;2.10;;;13.40;99.90;;;;;;5082712;28;20199;-84
2023/07/13 11:36:39;;;;;;;2.70;1.77;;;13.50;99.90;;;;;;5084562;28;20302;-83
2023/07/13 11:39:22;;;;;;;4.57;2.40;;;13.40;99.90;;;;;;5084055;28;20602;-84
2023/07/13 11:41:57;;;;;;;3.00;1.87;;;13.30;99.90;;;;;;5063449;28;20809;-84
2023/07/13 11:44:30;;;;;;;8.13;2.53;;;13.30;99.90;;;;;;5083686;28;20206;-84
2023/07/13 11:47:11;;;;;;;4.17;2.20;;;13.30;99.90;;;;;;5072403;28;20210;-84
2023/07/13 11:49:46;;;;;;;4.50;2.10;;;13.30;99.90;;;;;;5085736;28;20433;-84
2023/07/13 11:52:22;;;;;;;3.13;1.90;;;13.30;99.90;;;;;;5089989;28;20579;-84
2023/07/13 11:54:56;;;;;;;3.03;2.30;;;13.20;99.90;;;;;;5083047;28;20218;-83
2023/07/13 11:57:31;;;;;;;2.50;2.13;;;13.20;99.90;;;;;;5083374;28;20191;-84
2023/07/13 12:00:06;;;;;;;3.40;2.17;;;13.10;99.90;;;;;;5090588;28;20668;-84
2023/07/13 12:02:40;;;;;;;3.23;2.30;;;13.10;99.90;;;;;;5080081;28;20238;-84
2023/07/13 12:05:14;;;;;;;2.40;2.20;;;13.10;99.90;;;;;;5090967;28;20255;-83
2023/07/13 12:07:46;;;;;;;2.97;2.20;;;13.10;99.90;;;;;;5090569;28;20213;-83
2023/07/13 12:10:22;;;;;;;3.07;2.03;;;13.10;99.90;;;;;;5091278;28;20217;-83
2023/07/13 12:12:55;;;;;;;3.43;2.10;;;13.10;99.90;;;;;;5089176;28;20202;-84
2023/07/13 12:15:41;;;;;;;3.87;1.90;;;13.00;99.90;;;;;;5087212;28;20202;-83
2023/07/13 12:18:17;;;;;;;4.77;2.70;;;13.00;99.90;;;;;;5083776;28;20203;-83
2023/07/13 12:20:49;;;;;;;3.40;2.70;;;12.90;99.90;;;;;;5082174;28;20981;-84
2023/07/13 12:23:27;;;;;;;3.87;2.73;;;12.90;99.90;;;;;;5079335;28;20668;-84
2023/07/13 12:26:00;;;;;;;4.47;2.50;;;12.90;99.90;;;;;;5083661;28;20370;-84
2023/07/13 12:28:36;;;;;;;2.63;2.40;;;12.90;99.90;;;;;;5082717;28;20210;-83
2023/07/13 12:31:08;;;;;;;5.20;2.50;;;12.90;99.90;;;;;;5080654;28;20313;-85
2023/07/13 12:33:43;;;;;;;3.17;2.60;;;12.90;99.90;;;;;;5082964;28;20218;-83
2023/07/13 12:36:15;;;;;;;4.27;2.47;;;12.80;99.90;;;;;;5083961;28;20207;-84
2023/07/13 12:38:48;;;;;;;3.97;2.70;;;12.80;99.90;;;;;;5083133;28;20320;-83
2023/07/13 12:41:20;;;;;;;3.07;2.30;;;12.80;99.90;;;;;;5083797;28;20324;-85
2023/07/13 12:43:51;;;;;;;2.60;2.30;;;12.80;99.90;;;;;;5089904;28;20202;-83
2023/07/13 12:46:28;;;;;;;3.00;2.60;;;12.80;99.90;;;;;;5078365;28;20203;-83
2023/07/13 12:49:00;;;;;;;4.20;2.83;;;12.80;99.90;;;;;;5090293;28;20610;-84
2023/07/13 12:51:52;;;;;;;3.77;2.47;;;12.80;99.90;;;;;;5086092;28;20218;-84
2023/07/13 12:54:25;;;;;;;3.37;2.30;;;12.80;99.90;;;;;;5080528;28;20203;-84
2023/07/13 12:56:58;;;;;;;4.67;2.67;;;12.80;99.90;;;;;;5086438;28;20293;-83
2023/07/13 12:59:37;;;;;;;3.63;2.60;;;12.80;99.90;;;;;;5087149;28;20199;-85
2023/07/13 13:02:30;;;;;;;5.70;2.23;;;12.80;99.90;;;;;;5113947;28;20222;-85
2023/07/13 13:05:03;;;;;;;3.33;2.37;;;12.90;99.90;;;;;;5082390;28;20311;-84
2023/07/13 13:07:34;;;;;;;4.90;2.37;;;12.90;99.90;;;;;;5108265;28;20199;-85
2023/07/13 13:10:14;;;;;;;6.47;3.03;;;12.80;99.90;;;;;;5089574;28;20211;-83
2023/07/13 13:12:45;;;;;;;3.33;2.50;;;12.80;99.90;;;;;;5084739;28;20503;-83
2023/07/13 13:15:16;;;;;;;2.40;2.20;;;12.90;99.90;;;;;;5084060;28;20203;-85
2023/07/13 13:17:47;;;;;;;5.57;2.50;;;12.90;99.90;;;;;;5084310;28;20286;-85
2023/07/13 13:20:20;;;;;;;2.93;2.30;;;12.90;99.90;;;;;;5081934;28;20312;-84
2023/07/13 13:22:51;;;;;;;4.40;2.57;;;12.90;99.90;;;;;;5081547;28;20207;-83